Time;durP1;ratioP1;P1;durP2;ratioP2;P2;SDS_P1;SDS_P2;PMS_P1;PMS_P2;Temp;Humidity;BMP_temperature;BMP_pressure;BME280_temperature;BME280_humidity;BME280_pressure;Samples;Min_cycle;Max_cycle;Signal;HPM_P1;HPM_P2
2022/06/04 00:00:31;;;;;;;;;;;23.30;49.10;;;;;;5074153;28;19908;-64
2022/06/04 00:02:57;;;;;;;;;;;23.20;49.10;;;;;;5074054;28;19908;-63
2022/06/04 00:05:26;;;;;;;;;;;23.20;49.20;;;;;;5074079;28;19931;-63
2022/06/04 00:07:52;;;;;;;;;;;23.20;49.20;;;;;;5074250;28;19912;-63
2022/06/04 00:15:49;;;;;;;;;;;23.20;49.30;;;;;;5074060;28;19957;-63
2022/06/04 00:18:15;;;;;;;;;;;23.10;49.30;;;;;;5073741;28;20023;-64
2022/06/04 00:20:40;;;;;;;;;;;23.10;49.30;;;;;;5073868;28;19908;-64
2022/06/04 00:23:06;;;;;;;;;;;23.10;49.40;;;;;;5072622;28;19915;-64
2022/06/04 00:25:32;;;;;;;;;;;23.10;49.30;;;;;;5073812;28;19908;-63
2022/06/04 00:27:58;;;;;;;;;;;23.10;49.30;;;;;;5073589;28;19913;-63
2022/06/04 00:30:24;;;;;;;;;;;23.10;49.30;;;;;;5073884;28;20257;-63
2022/06/04 00:32:49;;;;;;;;;;;23.10;49.30;;;;;;5073523;28;19999;-63
2022/06/04 00:35:15;;;;;;;;;;;23.10;49.30;;;;;;5073751;28;19912;-63
2022/06/04 00:37:40;;;;;;;;;;;23.10;49.30;;;;;;5072703;28;20367;-64
2022/06/04 00:40:06;;;;;;;;;;;23.10;49.30;;;;;;5073429;28;19934;-64
2022/06/04 00:42:32;;;;;;;;;;;23.10;49.20;;;;;;5072434;28;19954;-64
2022/06/04 00:45:16;;;;;;;;;;;23.10;49.30;;;;;;5072070;28;19944;-64
2022/06/04 00:47:41;;;;;;;;;;;23.10;49.20;;;;;;5073235;28;19909;-63
2022/06/04 00:50:08;;;;;;;;;;;23.10;49.20;;;;;;5073263;28;19916;-63
2022/06/04 00:52:34;;;;;;;;;;;23.20;49.30;;;;;;5073611;28;19909;-63
2022/06/04 00:54:59;;;;;;;;;;;23.20;49.10;;;;;;5073323;28;19913;-63
2022/06/04 00:57:44;;;;;;;;;;;23.20;49.10;;;;;;5072078;28;20414;-63
2022/06/04 01:00:10;;;;;;;;;;;23.20;49.10;;;;;;5073461;28;19932;-63
2022/06/04 01:02:54;;;;;;;;;;;23.20;49.10;;;;;;5073173;28;19995;-63
2022/06/04 01:05:29;;;;;;;;;;;23.20;49.10;;;;;;5073168;28;19963;-63
2022/06/04 01:08:13;;;;;;;;;;;23.20;49.10;;;;;;5073340;28;20427;-63
2022/06/04 01:10:54;;;;;;;;;;;23.20;49.10;;;;;;5073122;28;19992;-63
2022/06/04 01:13:38;;;;;;;;;;;23.20;49.10;;;;;;5071908;28;19962;-63
2022/06/04 01:16:12;;;;;;;;;;;23.20;49.00;;;;;;5072949;28;19908;-63
2022/06/04 01:18:50;;;;;;;;;;;23.20;48.90;;;;;;5073039;28;19915;-63
2022/06/04 01:21:19;;;;;;;;;;;23.20;49.00;;;;;;5071753;28;19915;-63
2022/06/04 01:23:50;;;;;;;;;;;23.30;49.00;;;;;;5072932;28;19915;-63
2022/06/04 01:26:22;;;;;;;;;;;23.30;49.00;;;;;;5054987;28;19963;-64
2022/06/04 01:28:49;;;;;;;;;;;23.30;48.70;;;;;;5072821;28;19913;-64
2022/06/04 01:31:17;;;;;;;;;;;23.20;49.00;;;;;;5071752;28;19912;-64
2022/06/04 01:33:44;;;;;;;;;;;23.30;49.00;;;;;;5071728;28;19909;-64
2022/06/04 01:36:39;;;;;;;;;;;23.20;48.80;;;;;;5072928;28;20311;-64
2022/06/04 01:39:09;;;;;;;;;;;23.20;48.80;;;;;;5055948;28;19962;-63
2022/06/04 01:41:37;;;;;;;;;;;23.20;48.70;;;;;;5072814;28;19915;-63
2022/06/04 01:44:06;;;;;;;;;;;23.20;48.90;;;;;;5072676;28;20386;-63
2022/06/04 01:46:32;;;;;;;;;;;23.20;48.50;;;;;;5072865;28;19954;-63
2022/06/04 01:48:58;;;;;;;;;;;23.20;48.90;;;;;;5071493;28;19913;-63
2022/06/04 01:51:24;;;;;;;;;;;23.20;48.50;;;;;;5072784;28;19908;-63
2022/06/04 01:53:54;;;;;;;;;;;23.20;48.70;;;;;;5071468;28;19909;-64
2022/06/04 01:56:21;;;;;;;;;;;23.20;48.50;;;;;;5071645;28;19908;-64
2022/06/04 01:58:53;;;;;;;;;;;23.20;48.70;;;;;;5073281;28;19966;-64
2022/06/04 02:01:19;;;;;;;;;;;23.20;48.50;;;;;;5076517;28;19931;-64
2022/06/04 02:03:47;;;;;;;;;;;23.20;48.70;;;;;;5075237;28;19928;-64
2022/06/04 02:06:23;;;;;;;;;;;23.10;48.80;;;;;;5075246;28;19913;-63
2022/06/04 02:08:51;;;;;;;;;;;23.10;48.80;;;;;;5082065;28;19912;-63
2022/06/04 02:11:17;;;;;;;;;;;23.20;48.90;;;;;;5076311;28;19973;-63
2022/06/04 02:13:43;;;;;;;;;;;23.20;48.90;;;;;;5075106;28;20437;-63
2022/06/04 02:16:21;;;;;;;;;;;23.10;48.40;;;;;;5076112;28;19912;-63
2022/06/04 02:18:47;;;;;;;;;;;23.10;48.80;;;;;;5076115;28;19936;-63
2022/06/04 02:21:13;;;;;;;;;;;23.10;48.80;;;;;;5076422;28;20352;-63
2022/06/04 02:23:38;;;;;;;;;;;23.10;48.80;;;;;;5076459;28;20326;-63
2022/06/04 02:26:04;;;;;;;;;;;23.10;48.80;;;;;;5076073;28;19956;-63
2022/06/04 02:28:29;;;;;;;;;;;23.10;48.90;;;;;;5075822;28;19916;-63
2022/06/04 02:31:13;;;;;;;;;;;23.10;48.70;;;;;;5075807;28;19912;-63
2022/06/04 02:33:52;;;;;;;;;;;23.10;48.90;;;;;;5075773;28;19909;-63
2022/06/04 02:36:26;;;;;;;;;;;23.10;48.90;;;;;;5075798;28;19909;-63
2022/06/04 02:38:58;;;;;;;;;;;23.10;48.80;;;;;;5058192;28;19908;-63
2022/06/04 02:41:24;;;;;;;;;;;23.10;48.90;;;;;;5075708;28;19955;-63
2022/06/04 02:43:51;;;;;;;;;;;23.10;48.80;;;;;;5074456;28;20269;-63
2022/06/04 02:46:33;;;;;;;;;;;23.10;48.90;;;;;;5074727;28;19916;-63
2022/06/04 02:49:04;;;;;;;;;;;23.10;48.80;;;;;;5074234;28;19912;-63
2022/06/04 02:51:32;;;;;;;;;;;23.10;48.80;;;;;;5074475;28;20345;-63
2022/06/04 02:53:57;;;;;;;;;;;23.10;48.90;;;;;;5074276;28;19934;-63
2022/06/04 02:56:24;;;;;;;;;;;23.10;48.90;;;;;;5074242;28;19916;-63
2022/06/04 02:58:52;;;;;;;;;;;23.00;48.90;;;;;;5074206;28;19915;-63
2022/06/04 03:01:18;;;;;;;;;;;23.00;48.90;;;;;;5075437;28;19912;-63
2022/06/04 03:03:44;;;;;;;;;;;23.00;48.70;;;;;;5075342;28;19909;-63
2022/06/04 03:06:19;;;;;;;;;;;23.00;48.70;;;;;;5075328;28;19909;-63
2022/06/04 03:08:44;;;;;;;;;;;23.00;48.70;;;;;;5075488;28;20288;-63
2022/06/04 03:11:10;;;;;;;;;;;23.00;48.90;;;;;;5072721;28;19909;-63
2022/06/04 03:13:35;;;;;;;;;;;23.00;49.00;;;;;;5075254;28;20368;-63
2022/06/04 03:16:01;;;;;;;;;;;23.00;48.70;;;;;;5074943;28;19909;-64
2022/06/04 03:18:26;;;;;;;;;;;23.00;49.00;;;;;;5073821;28;20326;-64
2022/06/04 03:20:52;;;;;;;;;;;23.00;48.70;;;;;;5074987;28;19909;-64
2022/06/04 03:23:17;;;;;;;;;;;23.00;48.90;;;;;;5075263;28;19909;-63
2022/06/04 03:25:43;;;;;;;;;;;22.90;48.70;;;;;;5073676;28;20427;-63
2022/06/04 03:28:08;;;;;;;;;;;22.90;48.70;;;;;;5074788;28;20357;-63
2022/06/04 03:30:35;;;;;;;;;;;22.90;48.50;;;;;;5074906;28;19974;-63
2022/06/04 03:33:01;;;;;;;;;;;22.90;48.60;;;;;;5074711;28;19908;-63
2022/06/04 03:35:26;;;;;;;;;;;22.90;48.70;;;;;;5074724;28;19916;-63
2022/06/04 03:37:51;;;;;;;;;;;22.90;48.70;;;;;;5074886;28;19908;-63
2022/06/04 03:40:17;;;;;;;;;;;22.90;48.70;;;;;;5074564;28;19908;-63
2022/06/04 03:42:42;;;;;;;;;;;22.90;48.40;;;;;;5074495;28;19909;-63
2022/06/04 03:45:08;;;;;;;;;;;22.90;48.40;;;;;;5074520;28;19916;-63
2022/06/04 03:47:36;;;;;;;;;;;23.00;48.30;;;;;;5074813;28;19908;-63
2022/06/04 03:50:03;;;;;;;;;;;23.00;48.20;;;;;;5073443;28;19916;-63
2022/06/04 03:52:28;;;;;;;;;;;23.00;48.20;;;;;;5074305;28;19909;-63
2022/06/04 03:54:54;;;;;;;;;;;23.00;48.10;;;;;;5074300;28;20291;-63
2022/06/04 03:57:38;;;;;;;;;;;23.00;48.10;;;;;;5074338;28;20337;-63
2022/06/04 04:00:22;;;;;;;;;;;23.00;48.10;;;;;;5074297;28;20339;-63
2022/06/04 04:02:54;;;;;;;;;;;23.00;48.10;;;;;;5074133;28;20002;-63
2022/06/04 04:05:20;;;;;;;;;;;23.00;48.10;;;;;;5074443;28;20600;-63
2022/06/04 04:07:46;;;;;;;;;;;23.00;48.10;;;;;;5074657;28;19909;-63
2022/06/04 04:10:11;;;;;;;;;;;23.00;48.00;;;;;;5073919;28;20031;-63
2022/06/04 04:12:37;;;;;;;;;;;23.00;48.00;;;;;;5072744;28;19909;-63
2022/06/04 04:15:03;;;;;;;;;;;23.00;48.00;;;;;;5072757;28;19908;-63
2022/06/04 04:17:28;;;;;;;;;;;23.00;48.00;;;;;;5073742;28;19927;-62
2022/06/04 04:19:54;;;;;;;;;;;23.00;48.00;;;;;;5072517;28;19915;-63
2022/06/04 04:22:19;;;;;;;;;;;23.00;48.00;;;;;;5073711;28;19908;-63
2022/06/04 04:24:45;;;;;;;;;;;22.90;48.00;;;;;;5073815;28;20291;-63
2022/06/04 04:27:11;;;;;;;;;;;22.90;48.00;;;;;;5073729;28;19908;-63
2022/06/04 04:29:37;;;;;;;;;;;22.90;48.00;;;;;;5073535;28;19913;-63
2022/06/04 04:32:03;;;;;;;;;;;22.90;48.30;;;;;;5073625;28;19909;-63
2022/06/04 04:34:28;;;;;;;;;;;22.90;48.10;;;;;;5073884;28;19916;-63
2022/06/04 04:36:54;;;;;;;;;;;22.90;48.10;;;;;;5073564;28;19909;-64
2022/06/04 04:39:19;;;;;;;;;;;22.80;48.40;;;;;;5073747;28;19914;-64
2022/06/04 04:41:44;;;;;;;;;;;22.80;48.40;;;;;;5072491;28;19912;-63
2022/06/04 04:44:10;;;;;;;;;;;22.80;48.20;;;;;;5073360;28;19908;-64
2022/06/04 04:46:35;;;;;;;;;;;22.80;48.40;;;;;;5073519;28;19916;-63
2022/06/04 04:49:01;;;;;;;;;;;22.80;48.50;;;;;;5073312;28;19912;-63
2022/06/04 04:51:26;;;;;;;;;;;22.80;48.40;;;;;;5073619;28;19908;-63
2022/06/04 04:53:52;;;;;;;;;;;22.70;48.50;;;;;;5072058;28;19915;-63
2022/06/04 04:56:18;;;;;;;;;;;22.70;48.50;;;;;;5073380;28;19995;-63
2022/06/04 04:58:43;;;;;;;;;;;22.70;48.40;;;;;;5073542;28;19931;-63
2022/06/04 05:01:19;;;;;;;;;;;22.70;48.50;;;;;;5073200;28;19908;-63
2022/06/04 05:03:44;;;;;;;;;;;22.70;49.10;;;;;;5073155;28;19916;-63
2022/06/04 05:06:10;;;;;;;;;;;22.70;48.70;;;;;;5073194;28;19995;-63
2022/06/04 05:08:36;;;;;;;;;;;22.60;48.50;;;;;;5073353;28;19916;-63
2022/06/04 05:11:05;;;;;;;;;;;22.60;48.70;;;;;;5073106;28;19915;-63
2022/06/04 05:13:30;;;;;;;;;;;22.60;48.70;;;;;;5073138;28;19908;-63
2022/06/04 05:15:56;;;;;;;;;;;22.60;48.70;;;;;;5073220;28;19991;-63
2022/06/04 05:18:21;;;;;;;;;;;22.60;48.90;;;;;;5073061;28;19917;-63
2022/06/04 05:20:47;;;;;;;;;;;22.50;48.90;;;;;;5072885;28;19912;-63
2022/06/04 05:23:12;;;;;;;;;;;22.50;49.10;;;;;;5071740;28;19908;-63
2022/06/04 05:25:38;;;;;;;;;;;22.40;49.00;;;;;;5073018;28;19909;-63
2022/06/04 05:28:04;;;;;;;;;;;22.40;49.00;;;;;;5072832;28;19944;-62
2022/06/04 05:30:29;;;;;;;;;;;22.40;49.20;;;;;;5072915;28;19908;-63
2022/06/04 05:32:54;;;;;;;;;;;22.40;49.10;;;;;;5073293;28;19912;-63
2022/06/04 05:35:20;;;;;;;;;;;22.40;49.10;;;;;;5077340;28;19922;-63
2022/06/04 05:37:45;;;;;;;;;;;22.40;49.00;;;;;;5077689;28;19955;-63
2022/06/04 05:40:11;;;;;;;;;;;22.50;49.00;;;;;;5076868;28;19916;-63
2022/06/04 05:42:36;;;;;;;;;;;22.50;48.90;;;;;;5076824;28;19909;-63
2022/06/04 05:45:02;;;;;;;;;;;22.50;48.80;;;;;;5076977;28;19931;-63
2022/06/04 05:47:27;;;;;;;;;;;22.50;48.90;;;;;;5077039;28;20387;-63
2022/06/04 05:49:53;;;;;;;;;;;22.50;48.80;;;;;;5075412;28;20310;-63
2022/06/04 05:52:20;;;;;;;;;;;22.50;48.80;;;;;;5077013;28;20070;-63
2022/06/04 05:54:46;;;;;;;;;;;22.50;48.90;;;;;;5076789;28;19999;-63
2022/06/04 05:57:11;;;;;;;;;;;22.60;48.90;;;;;;5076564;28;19996;-63
2022/06/04 05:59:37;;;;;;;;;;;22.50;48.80;;;;;;5075285;28;20007;-63
2022/06/04 06:02:02;;;;;;;;;;;22.50;48.90;;;;;;5076514;28;19908;-63
2022/06/04 06:04:28;;;;;;;;;;;22.50;48.80;;;;;;5076443;28;19922;-63
2022/06/04 06:06:54;;;;;;;;;;;22.50;48.90;;;;;;5076448;28;19909;-63
2022/06/04 06:09:20;;;;;;;;;;;22.50;48.80;;;;;;5075454;28;19913;-63
2022/06/04 06:11:46;;;;;;;;;;;22.60;48.70;;;;;;5076365;28;19912;-63
2022/06/04 06:14:12;;;;;;;;;;;22.60;48.70;;;;;;5076374;28;19912;-63
2022/06/04 06:16:39;;;;;;;;;;;22.60;48.70;;;;;;5076106;28;19921;-63
2022/06/04 06:19:04;;;;;;;;;;;22.50;48.80;;;;;;5076099;28;20042;-63
2022/06/04 06:21:30;;;;;;;;;;;22.60;48.80;;;;;;5076102;28;19950;-63
2022/06/04 06:23:56;;;;;;;;;;;22.60;48.70;;;;;;5076047;28;19912;-63
2022/06/04 06:26:26;;;;;;;;;;;22.60;48.80;;;;;;5076170;28;19978;-63
2022/06/04 06:28:51;;;;;;;;;;;22.60;48.80;;;;;;5074656;28;20418;-63
2022/06/04 06:31:21;;;;;;;;;;;22.60;48.70;;;;;;5075872;28;19908;-63
2022/06/04 06:33:47;;;;;;;;;;;22.60;48.80;;;;;;5075837;28;19909;-63
2022/06/04 06:36:13;;;;;;;;;;;22.60;48.80;;;;;;5075878;28;19908;-63
2022/06/04 06:38:38;;;;;;;;;;;22.60;48.80;;;;;;5074922;28;19909;-63
2022/06/04 06:41:04;;;;;;;;;;;22.60;48.80;;;;;;5075742;28;19915;-63
2022/06/04 06:43:49;;;;;;;;;;;22.50;48.70;;;;;;5075775;28;19955;-63
2022/06/04 06:46:18;;;;;;;;;;;22.50;48.80;;;;;;5075807;28;19909;-63
2022/06/04 06:48:44;;;;;;;;;;;22.50;48.80;;;;;;5075531;28;19960;-63
2022/06/04 06:51:15;;;;;;;;;;;22.50;48.90;;;;;;5074387;28;19916;-62
2022/06/04 06:53:41;;;;;;;;;;;22.50;48.90;;;;;;5074605;28;20376;-63
2022/06/04 06:56:13;;;;;;;;;;;22.50;48.90;;;;;;5075569;28;19908;-63
2022/06/04 06:58:38;;;;;;;;;;;22.50;48.90;;;;;;5074378;28;19908;-63
2022/06/04 07:01:04;;;;;;;;;;;22.50;49.10;;;;;;5075415;28;20392;-62
2022/06/04 07:03:30;;;;;;;;;;;22.50;49.00;;;;;;5075367;28;19915;-63
2022/06/04 07:05:55;;;;;;;;;;;22.50;49.10;;;;;;5075283;28;19920;-63
2022/06/04 07:08:23;;;;;;;;;;;22.50;49.10;;;;;;5075460;28;19912;-63
2022/06/04 07:10:49;;;;;;;;;;;22.50;49.10;;;;;;5075254;28;19909;-63
2022/06/04 07:13:14;;;;;;;;;;;22.50;49.00;;;;;;5075162;28;19909;-63
2022/06/04 07:15:40;;;;;;;;;;;22.50;49.10;;;;;;5075195;28;19936;-63
2022/06/04 07:18:05;;;;;;;;;;;22.50;49.10;;;;;;5074939;28;19928;-63
2022/06/04 07:20:31;;;;;;;;;;;22.50;49.00;;;;;;5075101;28;20284;-63
2022/06/04 07:22:56;;;;;;;;;;;22.50;49.00;;;;;;5075003;28;19908;-63
2022/06/04 07:25:22;;;;;;;;;;;22.50;48.90;;;;;;5075074;28;19908;-63
2022/06/04 07:27:47;;;;;;;;;;;22.60;48.90;;;;;;5074865;28;19908;-63
2022/06/04 07:30:12;;;;;;;;;;;22.70;48.80;;;;;;5074754;28;19916;-63
2022/06/04 07:32:38;;;;;;;;;;;22.70;48.90;;;;;;5074810;28;19909;-63
2022/06/04 07:35:03;;;;;;;;;;;22.70;48.80;;;;;;5074691;28;20288;-63
2022/06/04 07:37:29;;;;;;;;;;;22.70;48.70;;;;;;5075101;28;20375;-63
2022/06/04 07:39:54;;;;;;;;;;;22.80;48.80;;;;;;5074974;28;19916;-63
2022/06/04 07:42:20;;;;;;;;;;;22.80;48.90;;;;;;5074633;28;19909;-63
2022/06/04 07:44:45;;;;;;;;;;;22.80;48.80;;;;;;5073434;28;19913;-63
2022/06/04 07:47:12;;;;;;;;;;;22.80;49.00;;;;;;5074523;28;19908;-63
2022/06/04 07:49:37;;;;;;;;;;;22.80;49.00;;;;;;5074445;28;19919;-63
2022/06/04 07:52:03;;;;;;;;;;;22.80;49.00;;;;;;5074403;28;19908;-63
2022/06/04 07:54:29;;;;;;;;;;;22.80;49.10;;;;;;5074544;28;19908;-63
2022/06/04 07:56:54;;;;;;;;;;;22.80;49.00;;;;;;5072636;28;20422;-63
2022/06/04 07:59:20;;;;;;;;;;;22.80;49.00;;;;;;5074619;28;20007;-63
2022/06/04 08:01:46;;;;;;;;;;;22.80;48.80;;;;;;5073349;28;19912;-63
2022/06/04 08:04:11;;;;;;;;;;;22.80;48.90;;;;;;5074124;28;20264;-63
2022/06/04 08:06:37;;;;;;;;;;;22.80;48.90;;;;;;5074375;28;19915;-63
2022/06/04 08:09:02;;;;;;;;;;;22.80;48.90;;;;;;5074245;28;19999;-63
2022/06/04 08:11:30;;;;;;;;;;;22.80;48.90;;;;;;5074048;28;19916;-63
2022/06/04 08:13:56;;;;;;;;;;;22.80;48.90;;;;;;5073919;28;20015;-64
2022/06/04 08:16:22;;;;;;;;;;;22.80;48.90;;;;;;5073832;28;19916;-63
2022/06/04 08:18:47;;;;;;;;;;;22.90;49.00;;;;;;5073854;28;19999;-63
2022/06/04 08:21:13;;;;;;;;;;;22.90;48.90;;;;;;5072650;28;20275;-62
2022/06/04 08:23:39;;;;;;;;;;;22.90;49.00;;;;;;5073707;28;20073;-63
2022/06/04 08:26:06;;;;;;;;;;;22.90;49.00;;;;;;5073859;28;19991;-63
2022/06/04 08:28:31;;;;;;;;;;;22.90;49.10;;;;;;5072443;28;19912;-63
2022/06/04 08:31:02;;;;;;;;;;;22.90;49.00;;;;;;5073558;28;19916;-63
2022/06/04 08:33:27;;;;;;;;;;;22.90;49.10;;;;;;5072320;28;19916;-63
2022/06/04 08:35:53;;;;;;;;;;;22.90;49.00;;;;;;5073544;28;19909;-63
2022/06/04 08:38:18;;;;;;;;;;;22.90;49.00;;;;;;5073884;28;19915;-63
2022/06/04 08:40:50;;;;;;;;;;;23.00;49.00;;;;;;5073490;28;19915;-63
2022/06/04 08:43:16;;;;;;;;;;;23.00;49.00;;;;;;5073780;28;20380;-63
2022/06/04 08:45:41;;;;;;;;;;;23.00;48.90;;;;;;5073520;28;19909;-63
2022/06/04 08:48:28;;;;;;;;;;;23.00;49.00;;;;;;5072174;28;19909;-64
2022/06/04 08:50:54;;;;;;;;;;;23.00;49.00;;;;;;5073418;28;19908;-64
2022/06/04 08:53:20;;;;;;;;;;;23.00;49.00;;;;;;5073350;28;19912;-64
2022/06/04 08:58:39;;;;;;;;;;;23.00;49.00;;;;;;5072251;28;19916;-64
2022/06/04 09:01:05;;;;;;;;;;;23.00;49.00;;;;;;5055422;28;19912;-64
2022/06/04 09:03:30;;;;;;;;;;;23.00;49.00;;;;;;5071862;28;19970;-63
2022/06/04 09:05:58;;;;;;;;;;;23.00;48.90;;;;;;5073414;28;19916;-63
2022/06/04 09:08:39;;;;;;;;;;;23.00;48.90;;;;;;5072469;28;19912;-63
2022/06/04 09:11:05;;;;;;;;;;;23.00;48.90;;;;;;5072138;28;19998;-63
2022/06/04 09:13:34;;;;;;;;;;;23.00;48.90;;;;;;5073441;28;20026;-63
2022/06/04 09:16:03;;;;;;;;;;;23.00;49.00;;;;;;5071716;28;19908;-63
2022/06/04 09:18:32;;;;;;;;;;;23.00;49.00;;;;;;5073430;28;19911;-63
2022/06/04 09:20:59;;;;;;;;;;;23.00;49.00;;;;;;5073079;28;19917;-63
2022/06/04 09:23:30;;;;;;;;;;;23.00;49.00;;;;;;5071777;28;19970;-63
2022/06/04 09:26:13;;;;;;;;;;;23.00;49.00;;;;;;5073125;28;19908;-63
2022/06/04 09:28:58;;;;;;;;;;;23.00;49.00;;;;;;5071732;28;19986;-63
2022/06/04 09:31:24;;;;;;;;;;;23.00;49.10;;;;;;5072330;28;19951;-63
2022/06/04 09:33:53;;;;;;;;;;;23.10;49.10;;;;;;5072814;28;20343;-63
2022/06/04 09:36:22;;;;;;;;;;;23.10;49.00;;;;;;5072987;28;19912;-63
2022/06/04 09:38:51;;;;;;;;;;;23.10;49.00;;;;;;5071992;28;19908;-63
2022/06/04 09:41:18;;;;;;;;;;;23.10;48.90;;;;;;5072858;28;19947;-63
2022/06/04 09:43:45;;;;;;;;;;;23.20;48.90;;;;;;5072870;28;20390;-63
2022/06/04 09:46:10;;;;;;;;;;;23.20;48.90;;;;;;5072872;28;19916;-63
2022/06/04 09:48:37;;;;;;;;;;;23.20;48.90;;;;;;5072714;28;19916;-63
2022/06/04 09:51:03;;;;;;;;;;;23.20;48.80;;;;;;5072770;28;19915;-63
2022/06/04 09:53:30;;;;;;;;;;;23.20;48.80;;;;;;5072662;28;19909;-63
2022/06/04 09:56:05;;;;;;;;;;;23.30;48.90;;;;;;5071578;28;19913;-63
2022/06/04 09:58:32;;;;;;;;;;;23.30;48.80;;;;;;5072689;28;19908;-63
2022/06/04 10:01:04;;;;;;;;;;;23.30;48.80;;;;;;5071476;28;19940;-63
2022/06/04 10:03:31;;;;;;;;;;;23.20;48.70;;;;;;5054592;28;19908;-63
2022/06/04 10:06:00;;;;;;;;;;;23.30;48.80;;;;;;5072547;28;19978;-63
2022/06/04 10:08:26;;;;;;;;;;;23.30;48.80;;;;;;5072810;28;19964;-63
2022/06/04 10:11:01;;;;;;;;;;;23.30;48.80;;;;;;5072479;28;20292;-63
2022/06/04 10:13:42;;;;;;;;;;;23.30;48.80;;;;;;5072443;28;19908;-64
2022/06/04 10:16:15;;;;;;;;;;;23.30;48.70;;;;;;5071150;28;20285;-63
2022/06/04 10:18:50;;;;;;;;;;;23.30;48.70;;;;;;5071278;28;19923;-63
2022/06/04 10:21:20;;;;;;;;;;;23.30;48.80;;;;;;5075016;28;20007;-63
2022/06/04 10:23:46;;;;;;;;;;;23.30;48.80;;;;;;5076085;28;19954;-63
2022/06/04 10:26:22;;;;;;;;;;;23.30;49.00;;;;;;5074805;28;19908;-63
2022/06/04 10:28:53;;;;;;;;;;;23.20;48.90;;;;;;5075883;28;20287;-63
2022/06/04 10:31:22;;;;;;;;;;;23.30;48.90;;;;;;5075890;28;19952;-63
2022/06/04 10:33:59;;;;;;;;;;;23.30;48.90;;;;;;5075828;28;19915;-64
2022/06/04 10:36:29;;;;;;;;;;;23.30;48.90;;;;;;5074838;28;19908;-64
2022/06/04 10:38:57;;;;;;;;;;;23.30;48.90;;;;;;5074911;28;20338;-64
2022/06/04 10:41:46;;;;;;;;;;;23.30;48.80;;;;;;5074733;28;19962;-63
2022/06/04 10:44:32;;;;;;;;;;;23.30;48.80;;;;;;5038035;28;20411;-63
2022/06/04 10:47:30;;;;;;;;;;;23.30;49.00;;;;;;5075203;28;19940;-63
2022/06/04 10:50:11;;;;;;;;;;;23.30;48.90;;;;;;5031271;28;20461;-63
2022/06/04 10:52:40;;;;;;;;;;;23.30;49.00;;;;;;5074512;28;19909;-63
2022/06/04 10:55:26;;;;;;;;;;;23.30;49.00;;;;;;5075480;28;19919;-64
2022/06/04 10:58:01;;;;;;;;;;;23.30;49.00;;;;;;5060665;28;19908;-64
2022/06/04 11:00:28;;;;;;;;;;;23.40;49.00;;;;;;5074253;28;19962;-63
2022/06/04 11:02:55;;;;;;;;;;;23.40;49.00;;;;;;5074125;28;20300;-63
2022/06/04 11:05:22;;;;;;;;;;;23.40;49.00;;;;;;5074185;28;19966;-63
2022/06/04 11:08:08;;;;;;;;;;;23.40;49.00;;;;;;5075580;28;20007;-64
2022/06/04 11:10:35;;;;;;;;;;;23.40;49.00;;;;;;5061966;28;19912;-64
2022/06/04 11:13:02;;;;;;;;;;;23.40;49.00;;;;;;5074106;28;19909;-63
2022/06/04 11:15:35;;;;;;;;;;;23.40;48.90;;;;;;5075431;28;19909;-62
2022/06/04 11:18:12;;;;;;;;;;;23.40;49.00;;;;;;5057023;28;19928;-63
2022/06/04 11:20:38;;;;;;;;;;;23.40;49.00;;;;;;5080765;28;19979;-64
2022/06/04 11:23:09;;;;;;;;;;;23.40;49.00;;;;;;5075003;28;19999;-63
2022/06/04 11:25:35;;;;;;;;;;;23.40;49.00;;;;;;5074992;28;19909;-63
2022/06/04 11:28:08;;;;;;;;;;;23.40;49.00;;;;;;5073776;28;19959;-63
2022/06/04 11:30:49;;;;;;;;;;;23.50;49.00;;;;;;5072883;28;19913;-63
2022/06/04 11:33:29;;;;;;;;;;;23.50;49.00;;;;;;5074793;28;20279;-63
2022/06/04 11:36:18;;;;;;;;;;;23.50;48.90;;;;;;5074674;28;19994;-63
2022/06/04 11:39:07;;;;;;;;;;;23.50;49.00;;;;;;5037538;28;19916;-63
2022/06/04 11:41:35;;;;;;;;;;;23.50;49.00;;;;;;5036943;28;19908;-64
2022/06/04 11:44:18;;;;;;;;;;;23.50;49.00;;;;;;5074620;28;20322;-63
2022/06/04 11:46:43;;;;;;;;;;;23.60;49.10;;;;;;5080190;28;19909;-63
2022/06/04 11:49:18;;;;;;;;;;;23.60;49.10;;;;;;5074318;28;19971;-63
2022/06/04 11:51:48;;;;;;;;;;;23.60;49.10;;;;;;5073243;28;20364;-63
2022/06/04 11:54:17;;;;;;;;;;;23.60;49.10;;;;;;5073375;28;20364;-63
2022/06/04 11:56:43;;;;;;;;;;;23.60;49.10;;;;;;5073141;28;20283;-63
2022/06/04 11:59:17;;;;;;;;;;;23.60;49.10;;;;;;5074253;28;19909;-63
2022/06/04 12:01:46;;;;;;;;;;;23.70;49.00;;;;;;5073019;28;19909;-63
2022/06/04 12:04:20;;;;;;;;;;;23.70;49.10;;;;;;5074062;28;20389;-63
2022/06/04 12:06:52;;;;;;;;;;;23.70;49.10;;;;;;5074254;28;20003;-63
2022/06/04 12:09:31;;;;;;;;;;;23.70;49.10;;;;;;5073096;28;19913;-63
2022/06/04 12:12:35;;;;;;;;;;;23.70;49.00;;;;;;5073110;28;19962;-63
2022/06/04 12:15:16;;;;;;;;;;;23.70;49.00;;;;;;4992476;28;20008;-63
2022/06/04 12:17:43;;;;;;;;;;;23.80;49.10;;;;;;4976324;28;19922;-64
2022/06/04 12:26:14;;;;;;;;;;;23.80;48.90;;;;;;5072836;28;19934;-63
2022/06/04 12:28:40;;;;;;;;;;;23.90;49.00;;;;;;5055696;28;19919;-63
2022/06/04 12:31:06;;;;;;;;;;;23.90;49.00;;;;;;5072447;28;19912;-63
2022/06/04 12:33:33;;;;;;;;;;;23.90;48.90;;;;;;5072519;28;20011;-63
2022/06/04 12:36:02;;;;;;;;;;;23.90;48.90;;;;;;5073637;28;19954;-63
2022/06/04 12:38:28;;;;;;;;;;;23.90;48.80;;;;;;5072601;28;20006;-63
2022/06/04 12:41:06;;;;;;;;;;;24.00;48.80;;;;;;5072232;28;19999;-63
2022/06/04 12:43:33;;;;;;;;;;;24.00;48.80;;;;;;5073216;28;19963;-64
2022/06/04 12:46:09;;;;;;;;;;;24.10;48.70;;;;;;5072579;28;20413;-63
2022/06/04 12:48:48;;;;;;;;;;;24.10;48.70;;;;;;5072485;28;19951;-63
2022/06/04 12:51:15;;;;;;;;;;;24.10;48.60;;;;;;5073526;28;19909;-63
2022/06/04 12:53:55;;;;;;;;;;;24.10;48.50;;;;;;5073237;28;19908;-64
2022/06/04 12:56:22;;;;;;;;;;;24.20;48.60;;;;;;5072212;28;19915;-63
2022/06/04 12:58:49;;;;;;;;;;;24.20;48.40;;;;;;5073356;28;19916;-63
2022/06/04 13:01:18;;;;;;;;;;;24.20;48.40;;;;;;5073237;28;19954;-63
2022/06/04 13:03:44;;;;;;;;;;;24.20;48.40;;;;;;5073300;28;19991;-64
2022/06/04 13:06:12;;;;;;;;;;;24.30;48.50;;;;;;5072263;28;20374;-64
2022/06/04 13:08:40;;;;;;;;;;;24.30;48.40;;;;;;5073442;28;20265;-64
2022/06/04 13:11:10;;;;;;;;;;;24.30;48.40;;;;;;5073010;28;19909;-64
2022/06/04 13:13:51;;;;;;;;;;;24.30;48.30;;;;;;5072016;28;19920;-63
2022/06/04 13:16:18;;;;;;;;;;;24.30;48.40;;;;;;5072935;28;20368;-64
2022/06/04 13:18:43;;;;;;;;;;;24.30;48.40;;;;;;5072222;28;19958;-64
2022/06/04 13:21:13;;;;;;;;;;;24.40;48.40;;;;;;5073086;28;20318;-63
2022/06/04 13:23:42;;;;;;;;;;;24.40;48.40;;;;;;5071890;28;20372;-63
2022/06/04 13:26:20;;;;;;;;;;;24.40;48.40;;;;;;5071748;28;19909;-63
2022/06/04 13:28:49;;;;;;;;;;;24.40;48.30;;;;;;5072823;28;19981;-64
2022/06/04 13:31:25;;;;;;;;;;;24.40;48.10;;;;;;5071746;28;19909;-63
2022/06/04 13:33:51;;;;;;;;;;;24.40;48.10;;;;;;5072900;28;20004;-63
2022/06/04 13:36:18;;;;;;;;;;;24.50;48.20;;;;;;5071909;28;20360;-64
2022/06/04 13:38:44;;;;;;;;;;;24.50;48.10;;;;;;5071899;28;19934;-63
2022/06/04 13:44:17;;;;;;;;;;;24.50;48.10;;;;;;5072801;28;19915;-64
2022/06/04 13:46:42;;;;;;;;;;;24.50;48.20;;;;;;5072902;28;19908;-64
2022/06/04 13:49:10;;;;;;;;;;;24.50;48.20;;;;;;5072703;28;19965;-64
2022/06/04 13:51:39;;;;;;;;;;;24.60;48.30;;;;;;5072772;28;19909;-64
2022/06/04 13:54:05;;;;;;;;;;;24.60;48.30;;;;;;5073430;28;20311;-64
2022/06/04 13:56:38;;;;;;;;;;;24.60;48.30;;;;;;5075459;28;19909;-64
2022/06/04 13:59:04;;;;;;;;;;;24.60;48.30;;;;;;5076626;28;19908;-64
2022/06/04 14:01:33;;;;;;;;;;;24.60;48.30;;;;;;5076505;28;19953;-64
2022/06/04 14:06:44;;;;;;;;;;;24.60;48.30;;;;;;5076607;28;19916;-64
2022/06/04 14:09:17;;;;;;;;;;;24.60;48.20;;;;;;5076883;28;19920;-64
2022/06/04 14:11:47;;;;;;;;;;;24.60;48.20;;;;;;5076560;28;20414;-64
2022/06/04 14:14:18;;;;;;;;;;;24.60;48.30;;;;;;5075108;28;20003;-64
2022/06/04 14:16:56;;;;;;;;;;;24.60;48.20;;;;;;5076101;28;19927;-64
2022/06/04 14:19:29;;;;;;;;;;;24.60;48.20;;;;;;5075064;28;19909;-63
2022/06/04 14:22:13;;;;;;;;;;;24.70;48.30;;;;;;5074963;28;19924;-64
2022/06/04 14:24:54;;;;;;;;;;;24.70;48.30;;;;;;5076107;28;19951;-64
2022/06/04 14:27:41;;;;;;;;;;;24.70;48.30;;;;;;5076100;28;20000;-64
2022/06/04 14:30:09;;;;;;;;;;;24.70;48.30;;;;;;5075930;28;19924;-64
2022/06/04 14:32:46;;;;;;;;;;;24.70;48.30;;;;;;5076054;28;19908;-64
2022/06/04 14:35:13;;;;;;;;;;;24.80;48.40;;;;;;5075863;28;19955;-63
2022/06/04 14:37:40;;;;;;;;;;;24.70;48.30;;;;;;5075007;28;19958;-63
2022/06/04 14:40:06;;;;;;;;;;;24.70;48.30;;;;;;5074661;28;20368;-64
2022/06/04 14:42:31;;;;;;;;;;;24.80;48.40;;;;;;5074563;28;19909;-63
2022/06/04 14:44:59;;;;;;;;;;;24.70;48.30;;;;;;5075881;28;20272;-64
2022/06/04 14:47:25;;;;;;;;;;;24.80;48.40;;;;;;5075700;28;19908;-63